Time;durP1;ratioP1;P1;durP2;ratioP2;P2;SDS_P1;SDS_P2;PMS_P1;PMS_P2;Temp;Humidity;BMP_temperature;BMP_pressure;BME280_temperature;BME280_humidity;BME280_pressure;Samples;Min_cycle;Max_cycle;Signal;HPM_P1;HPM_P2
2023/04/11 00:04:19;;;;;;;4.38;1.35;;;12.10;96.40;;;;;;10319703;28;20402;-66
2023/04/11 00:09:19;;;;;;;3.08;1.27;;;12.10;96.40;;;;;;10321644;28;20070;-65
2023/04/11 00:14:20;;;;;;;3.95;1.30;;;12.10;96.40;;;;;;10320377;28;20057;-65
2023/04/11 00:19:22;;;;;;;2.65;1.23;;;12.10;96.40;;;;;;10323215;28;20022;-66
2023/04/11 00:24:26;;;;;;;3.58;1.00;;;12.10;96.40;;;;;;10319030;28;20406;-65
2023/04/11 00:29:27;;;;;;;2.80;1.00;;;12.00;96.30;;;;;;10321180;28;20023;-65
2023/04/11 00:34:27;;;;;;;2.83;1.08;;;12.00;96.30;;;;;;10321281;28;20113;-65
2023/04/11 00:39:32;;;;;;;4.28;0.90;;;12.00;96.30;;;;;;10323549;28;20984;-65
2023/04/11 00:44:36;;;;;;;0.88;0.68;;;12.00;96.30;;;;;;10318009;28;20121;-65
2023/04/11 00:49:38;;;;;;;1.73;0.73;;;12.00;96.30;;;;;;10322123;28;20011;-66
2023/04/11 00:54:39;;;;;;;1.65;1.25;;;12.00;96.30;;;;;;10319945;28;20038;-66
2023/04/11 00:59:40;;;;;;;2.65;0.90;;;11.90;96.20;;;;;;10319637;28;20227;-66
2023/04/11 01:04:42;;;;;;;2.25;0.82;;;11.90;96.20;;;;;;10321645;28;20033;-66
2023/04/11 01:09:44;;;;;;;4.00;0.98;;;11.90;96.20;;;;;;10316728;28;20493;-66
2023/04/11 01:14:46;;;;;;;5.55;1.08;;;11.90;96.50;;;;;;10319955;28;20402;-66
2023/04/11 01:19:47;;;;;;;0.80;0.60;;;11.90;96.20;;;;;;10317196;28;20045;-65
2023/04/11 01:24:48;;;;;;;2.10;0.60;;;11.80;96.20;;;;;;10320036;28;20163;-65
2023/04/11 01:29:49;;;;;;;2.55;0.90;;;11.90;96.20;;;;;;10320356;28;20106;-66
2023/04/11 01:34:55;;;;;;;3.13;0.70;;;11.80;96.10;;;;;;10319007;28;20041;-65
2023/04/11 01:39:56;;;;;;;5.50;0.82;;;11.80;96.10;;;;;;10314752;28;20077;-65
2023/04/11 01:44:56;;;;;;;4.63;1.15;;;11.80;96.10;;;;;;10317598;28;20375;-65
2023/04/11 01:49:57;;;;;;;4.03;0.95;;;11.10;95.90;;;;;;10317570;28;20022;-64
2023/04/11 01:54:58;;;;;;;1.80;0.60;;;11.70;96.10;;;;;;10314528;28;20114;-65
2023/04/11 01:59:59;;;;;;;1.40;0.70;;;11.70;96.10;;;;;;10319538;28;20029;-66
2023/04/11 02:05:00;;;;;;;3.55;1.23;;;11.70;96.10;;;;;;10316101;28;20577;-65
2023/04/11 02:10:01;;;;;;;1.65;1.10;;;11.70;96.10;;;;;;10316488;28;20091;-65
2023/04/11 02:15:01;;;;;;;2.05;1.05;;;11.70;96.00;;;;;;10317138;28;20099;-64
2023/04/11 02:20:05;;;;;;;2.30;0.70;;;11.70;96.00;;;;;;10314789;28;20032;-66
2023/04/11 02:25:06;;;;;;;2.15;1.20;;;11.70;96.00;;;;;;10318367;28;20026;-65
2023/04/11 02:30:07;;;;;;;4.40;1.00;;;11.60;96.00;;;;;;10317887;28;20026;-65
2023/04/11 02:35:08;;;;;;;3.58;0.82;;;11.60;96.00;;;;;;10317708;28;20052;-66
2023/04/11 02:40:09;;;;;;;2.72;0.70;;;11.60;96.00;;;;;;10315962;28;20564;-65
2023/04/11 02:45:10;;;;;;;3.22;1.13;;;11.60;96.00;;;;;;10315421;28;20022;-65
2023/04/11 02:50:11;;;;;;;3.90;0.80;;;11.60;96.00;;;;;;10317468;28;20014;-65
2023/04/11 02:55:11;;;;;;;3.45;1.35;;;11.60;96.00;;;;;;10317463;28;20034;-66
2023/04/11 03:00:12;;;;;;;3.50;0.80;;;11.60;96.00;;;;;;10314520;28;20022;-66
2023/04/11 03:05:14;;;;;;;4.18;0.60;;;11.60;96.00;;;;;;10315784;28;20542;-66
2023/04/11 03:10:15;;;;;;;3.50;0.93;;;11.50;96.00;;;;;;10316477;28;20101;-66
2023/04/11 03:15:16;;;;;;;2.70;0.80;;;11.50;96.00;;;;;;10316187;28;20141;-65
2023/04/11 03:20:18;;;;;;;3.15;1.40;;;11.50;96.00;;;;;;10314555;28;20019;-65
2023/04/11 03:25:19;;;;;;;5.22;1.15;;;11.50;96.00;;;;;;10326518;28;20495;-66
2023/04/11 03:30:20;;;;;;;3.63;0.90;;;11.50;96.00;;;;;;10314689;28;20018;-66
2023/04/11 03:35:21;;;;;;;2.22;0.80;;;11.50;96.00;;;;;;10321515;28;20322;-66
2023/04/11 03:40:21;;;;;;;2.17;0.80;;;11.50;96.00;;;;;;10322388;28;20395;-65
2023/04/11 03:45:22;;;;;;;2.40;0.70;;;11.50;96.00;;;;;;10324117;28;20022;-66
2023/04/11 03:50:22;;;;;;;3.45;0.98;;;11.50;96.00;;;;;;10322795;28;20483;-65
2023/04/11 03:55:24;;;;;;;2.80;0.70;;;11.50;96.00;;;;;;10324851;28;20680;-65
2023/04/11 04:00:25;;;;;;;3.45;0.82;;;11.40;96.00;;;;;;10321173;28;20514;-65
2023/04/11 04:05:26;;;;;;;2.10;0.63;;;11.50;96.00;;;;;;10324442;28;20019;-65
2023/04/11 04:10:27;;;;;;;5.70;0.82;;;11.50;96.00;;;;;;10322431;28;20672;-65
2023/04/11 04:15:27;;;;;;;1.60;0.80;;;11.50;96.00;;;;;;10322797;28;20781;-64
2023/04/11 04:20:28;;;;;;;2.38;0.75;;;11.40;96.00;;;;;;10323153;28;20080;-64
2023/04/11 04:25:29;;;;;;;1.88;0.70;;;11.40;96.00;;;;;;10324234;28;20034;-65
2023/04/11 04:30:29;;;;;;;3.63;1.13;;;11.40;96.00;;;;;;10317010;28;20022;-65
2023/04/11 04:35:30;;;;;;;3.00;0.73;;;11.40;96.00;;;;;;10319866;28;20045;-65
2023/04/11 04:40:31;;;;;;;2.75;1.13;;;11.40;96.00;;;;;;10320471;28;20034;-65
2023/04/11 04:45:32;;;;;;;2.63;0.90;;;11.40;96.00;;;;;;10317821;28;20605;-65
2023/04/11 04:50:32;;;;;;;2.30;0.63;;;11.40;96.00;;;;;;10319523;28;20033;-64
2023/04/11 04:55:33;;;;;;;1.70;0.65;;;11.40;96.00;;;;;;10319076;28;20080;-65
2023/04/11 05:00:33;;;;;;;1.73;0.70;;;11.30;96.00;;;;;;10319374;28;20031;-65
2023/04/11 05:05:34;;;;;;;2.80;0.80;;;11.30;96.00;;;;;;10320442;28;20034;-64
2023/04/11 05:10:35;;;;;;;2.03;1.00;;;11.30;96.00;;;;;;10320949;28;20037;-66
2023/04/11 05:15:35;;;;;;;2.22;0.80;;;11.30;96.00;;;;;;10318114;28;20022;-65
2023/04/11 05:20:36;;;;;;;4.05;0.93;;;11.30;96.00;;;;;;10319400;28;20042;-65
2023/04/11 05:25:37;;;;;;;2.65;0.80;;;11.30;96.00;;;;;;10321256;28;20033;-65
2023/04/11 05:30:38;;;;;;;1.70;0.60;;;11.30;96.00;;;;;;10319935;28;20060;-64
2023/04/11 05:35:38;;;;;;;3.50;0.95;;;11.30;96.00;;;;;;10320588;28;20030;-65
2023/04/11 05:40:39;;;;;;;1.13;0.60;;;11.30;96.00;;;;;;10314240;28;20027;-64
2023/04/11 05:45:40;;;;;;;1.40;0.70;;;11.30;96.00;;;;;;10320412;28;20026;-64
2023/04/11 05:50:41;;;;;;;3.90;1.20;;;11.30;95.90;;;;;;10317047;28;20034;-65
2023/04/11 05:55:42;;;;;;;1.60;0.60;;;11.30;95.90;;;;;;10318556;28;20022;-64
2023/04/11 06:00:44;;;;;;;1.63;0.43;;;11.30;95.90;;;;;;10316235;28;20499;-64
2023/04/11 06:05:45;;;;;;;2.50;0.70;;;11.30;95.90;;;;;;10297116;28;20117;-63
2023/04/11 06:10:46;;;;;;;1.02;0.60;;;11.30;95.90;;;;;;10314344;28;20410;-65
2023/04/11 06:15:46;;;;;;;3.65;0.98;;;11.30;95.90;;;;;;10314126;28;20084;-65
2023/04/11 06:20:48;;;;;;;5.35;0.90;;;11.30;95.90;;;;;;10317796;28;20044;-64
2023/04/11 06:25:49;;;;;;;3.42;0.77;;;11.30;95.90;;;;;;10319893;28;20026;-65
2023/04/11 06:30:49;;;;;;;5.47;1.00;;;11.30;95.90;;;;;;10316879;28;20014;-64
2023/04/11 06:35:50;;;;;;;6.47;1.00;;;11.30;95.90;;;;;;10315916;28;20072;-64
2023/04/11 06:40:53;;;;;;;8.70;1.42;;;11.30;96.10;;;;;;10315273;28;20038;-64
2023/04/11 06:45:54;;;;;;;4.57;0.80;;;11.30;95.80;;;;;;10317564;28;20022;-64
2023/04/11 06:50:54;;;;;;;1.85;0.60;;;11.30;95.80;;;;;;10317995;28;20678;-63
2023/04/11 06:55:55;;;;;;;3.90;0.95;;;11.40;95.80;;;;;;10313305;28;20041;-64
2023/04/11 07:00:55;;;;;;;4.90;0.73;;;11.40;95.80;;;;;;10315394;28;20018;-63
2023/04/11 07:05:56;;;;;;;5.10;0.90;;;11.40;95.80;;;;;;10319455;28;20112;-63
2023/04/11 07:10:56;;;;;;;2.70;1.20;;;11.40;95.70;;;;;;10309198;28;20019;-64
2023/04/11 07:15:57;;;;;;;3.97;1.10;;;11.40;95.70;;;;;;10315531;28;20030;-63
2023/04/11 07:20:58;;;;;;;3.45;0.80;;;11.50;95.70;;;;;;10303006;28;20049;-64
2023/04/11 07:25:58;;;;;;;6.13;1.25;;;11.50;95.70;;;;;;10314145;28;20030;-64
2023/04/11 07:30:59;;;;;;;3.20;0.88;;;11.50;95.70;;;;;;10296912;28;20019;-64
2023/04/11 07:36:00;;;;;;;2.58;0.80;;;11.50;95.70;;;;;;10307127;28;20038;-64
2023/04/11 07:41:02;;;;;;;5.68;1.00;;;11.50;95.60;;;;;;10305717;28;20049;-64
2023/04/11 07:46:03;;;;;;;2.55;0.98;;;11.50;95.60;;;;;;10310435;28;20390;-64
2023/04/11 07:51:03;;;;;;;2.42;0.90;;;11.50;95.60;;;;;;10310990;28;20018;-65
2023/04/11 07:56:04;;;;;;;2.33;0.80;;;11.60;95.60;;;;;;10307684;28;20015;-64
2023/04/11 08:01:17;;;;;;;5.82;0.77;;;11.60;95.60;;;;;;10313975;28;20042;-64
2023/04/11 08:06:18;;;;;;;3.70;0.80;;;11.60;95.50;;;;;;10315135;28;20030;-63
2023/04/11 08:11:19;;;;;;;3.88;0.65;;;11.70;95.50;;;;;;10309301;28;20027;-64
2023/04/11 08:16:19;;;;;;;1.77;0.75;;;11.70;95.50;;;;;;10308769;28;20430;-64
2023/04/11 08:21:22;;;;;;;5.53;0.98;;;11.70;95.40;;;;;;10319039;28;20101;-64
2023/04/11 08:26:23;;;;;;;4.90;1.00;;;11.70;95.40;;;;;;10319788;28;20026;-63
2023/04/11 08:31:25;;;;;;;2.35;0.95;;;11.80;95.40;;;;;;10321485;28;20018;-63
2023/04/11 08:36:26;;;;;;;3.53;0.93;;;11.80;95.40;;;;;;10315424;28;20030;-64
2023/04/11 08:41:29;;;;;;;1.90;0.90;;;11.80;95.40;;;;;;10315852;28;20421;-64
2023/04/11 08:46:32;;;;;;;4.30;0.88;;;11.80;95.40;;;;;;10313187;28;20057;-65
2023/04/11 08:51:32;;;;;;;3.90;0.80;;;11.50;95.40;;;;;;10320800;28;20037;-65
2023/04/11 08:56:34;;;;;;;6.30;1.70;;;11.80;95.50;;;;;;10319001;28;20023;-64
2023/04/11 09:01:36;;;;;;;3.03;0.90;;;11.70;95.60;;;;;;10317081;28;20408;-64
2023/04/11 09:06:38;;;;;;;2.25;0.75;;;11.70;95.70;;;;;;10319546;28;20030;-64
2023/04/11 09:11:50;;;;;;;4.63;1.23;;;11.70;95.70;;;;;;10314407;28;20038;-64
2023/04/11 09:17:00;;;;;;;3.35;0.63;;;11.70;95.70;;;;;;10318220;28;20064;-63
2023/04/11 09:22:05;;;;;;;2.40;0.63;;;11.70;95.70;;;;;;10312952;28;20023;-64
2023/04/11 09:27:15;;;;;;;1.30;0.60;;;11.70;95.80;;;;;;10314846;28;20541;-63
2023/04/11 09:32:32;;;;;;;1.92;0.75;;;11.60;95.80;;;;;;10316319;28;20118;-63
2023/04/11 09:37:53;;;;;;;2.05;0.70;;;11.70;95.80;;;;;;10318123;28;20398;-63
2023/04/11 09:43:03;;;;;;;4.30;1.00;;;11.70;95.70;;;;;;10315949;28;20065;-64
2023/04/11 09:48:04;;;;;;;2.85;0.60;;;11.70;95.70;;;;;;10312321;28;20019;-64
2023/04/11 09:53:09;;;;;;;3.63;1.27;;;11.80;95.70;;;;;;10305244;28;20030;-64
2023/04/11 09:58:12;;;;;;;5.22;0.90;;;11.80;95.60;;;;;;10317287;28;20058;-65
2023/04/11 10:03:15;;;;;;;3.42;1.50;;;11.90;95.60;;;;;;10319416;28;20042;-64
2023/04/11 10:08:30;;;;;;;4.32;0.80;;;11.90;95.50;;;;;;10314341;28;20050;-64
2023/04/11 10:13:47;;;;;;;4.15;0.68;;;12.00;95.50;;;;;;10309865;28;20038;-62
2023/04/11 10:18:54;;;;;;;5.07;0.90;;;12.10;95.50;;;;;;10310366;28;20035;-64
2023/04/11 10:24:20;;;;;;;2.50;0.75;;;12.10;95.30;;;;;;10311658;28;20034;-63
2023/04/11 10:29:27;;;;;;;4.00;0.90;;;12.10;95.40;;;;;;10309131;28;20050;-63
2023/04/11 10:34:27;;;;;;;2.78;0.90;;;12.20;95.30;;;;;;10311094;28;20549;-64
2023/04/11 10:39:47;;;;;;;2.03;0.73;;;12.30;95.20;;;;;;10313557;28;20015;-64
2023/04/11 10:45:26;;;;;;;4.20;0.60;;;12.30;95.20;;;;;;10310829;28;20152;-64
2023/04/11 10:50:30;;;;;;;2.08;0.60;;;12.30;95.20;;;;;;10317075;28;20425;-64
2023/04/11 10:55:50;;;;;;;4.20;0.98;;;12.40;95.10;;;;;;10316302;28;20034;-63
2023/04/11 11:00:59;;;;;;;2.70;1.00;;;12.40;95.10;;;;;;10309823;28;20117;-64
2023/04/11 11:06:08;;;;;;;6.43;1.05;;;12.50;95.00;;;;;;10315886;28;20069;-63
2023/04/11 11:11:10;;;;;;;2.53;0.70;;;12.50;95.00;;;;;;10316418;28;20034;-65
2023/04/11 11:16:15;;;;;;;2.83;0.77;;;12.50;94.90;;;;;;10312323;28;20624;-64
2023/04/11 11:21:23;;;;;;;3.70;1.27;;;12.50;94.90;;;;;;10317735;28;20110;-63
2023/04/11 11:26:38;;;;;;;3.35;0.90;;;12.50;94.90;;;;;;10312644;28;20030;-64
2023/04/11 11:31:44;;;;;;;3.10;1.00;;;12.60;94.90;;;;;;10312088;28;20023;-63
2023/04/11 11:36:45;;;;;;;4.00;0.95;;;12.70;94.80;;;;;;10311944;28;20053;-64
2023/04/11 11:41:46;;;;;;;2.85;0.90;;;12.70;94.70;;;;;;10313848;28;20490;-65
2023/04/11 11:47:11;;;;;;;3.35;0.75;;;12.80;94.70;;;;;;10315402;28;20072;-64
2023/04/11 11:52:29;;;;;;;6.88;0.95;;;12.80;94.60;;;;;;10311304;28;20200;-63
2023/04/11 11:57:30;;;;;;;2.97;0.53;;;13.30;94.60;;;;;;10320013;28;20027;-62
2023/04/11 12:02:34;;;;;;;2.83;0.73;;;13.00;94.70;;;;;;10317935;28;20285;-64
2023/04/11 12:07:39;;;;;;;5.03;0.85;;;13.10;94.30;;;;;;10317949;28;20034;-64
2023/04/11 12:12:47;;;;;;;2.25;0.80;;;13.20;94.20;;;;;;10317646;28;20038;-64
2023/04/11 12:17:53;;;;;;;2.00;0.50;;;13.20;94.10;;;;;;10323640;28;20027;-63
2023/04/11 12:22:55;;;;;;;3.25;0.68;;;13.30;94.10;;;;;;10322619;28;20030;-63
2023/04/11 12:27:56;;;;;;;4.15;0.88;;;13.30;94.00;;;;;;10318524;28;20548;-63
2023/04/11 12:32:56;;;;;;;5.18;1.05;;;13.30;94.00;;;;;;10316009;28;20083;-64
2023/04/11 12:37:57;;;;;;;5.03;0.95;;;13.40;94.00;;;;;;10320020;28;20498;-62
2023/04/11 12:42:57;;;;;;;1.35;0.85;;;13.40;94.00;;;;;;10316543;28;20022;-64
2023/04/11 12:47:58;;;;;;;4.15;0.60;;;13.50;94.00;;;;;;10318818;28;20018;-63
2023/04/11 12:52:59;;;;;;;4.07;1.10;;;13.50;93.90;;;;;;10314565;28;20518;-62
2023/04/11 12:58:00;;;;;;;2.88;1.02;;;13.60;93.90;;;;;;10316870;28;20027;-64
2023/04/11 13:03:03;;;;;;;2.30;0.85;;;13.60;93.90;;;;;;10321896;28;20414;-63
2023/04/11 13:08:03;;;;;;;5.18;1.23;;;13.60;93.80;;;;;;10312912;28;20085;-63
2023/04/11 13:13:08;;;;;;;2.85;0.75;;;13.70;93.90;;;;;;10317110;28;20030;-64
2023/04/11 13:18:09;;;;;;;3.15;0.80;;;13.70;93.80;;;;;;10321075;28;20014;-63
2023/04/11 13:23:10;;;;;;;4.38;0.93;;;13.80;93.90;;;;;;10313913;28;20034;-64
2023/04/11 13:28:11;;;;;;;3.97;1.02;;;13.80;93.90;;;;;;10314065;28;20093;-64
2023/04/11 13:33:11;;;;;;;1.65;0.65;;;13.80;93.90;;;;;;10309034;28;20496;-64
2023/04/11 13:38:12;;;;;;;3.05;0.80;;;13.80;93.80;;;;;;10311601;28;20319;-64
2023/04/11 13:43:13;;;;;;;4.53;0.88;;;13.90;93.80;;;;;;10313195;28;20030;-64
2023/04/11 13:48:13;;;;;;;1.60;0.52;;;13.90;93.90;;;;;;10315535;28;20031;-65
2023/04/11 13:53:14;;;;;;;2.42;0.75;;;13.90;93.90;;;;;;10314974;28;20165;-64
2023/04/11 13:58:14;;;;;;;4.70;0.95;;;14.00;93.90;;;;;;10314298;28;20207;-64
2023/04/11 14:03:15;;;;;;;5.20;0.80;;;14.10;93.90;;;;;;10317583;28;20117;-64
2023/04/11 14:08:16;;;;;;;2.22;0.73;;;14.20;93.80;;;;;;10319148;28;20105;-64
2023/04/11 14:13:16;;;;;;;1.65;0.60;;;14.30;93.70;;;;;;10317794;28;20030;-63
2023/04/11 14:18:17;;;;;;;3.75;0.85;;;14.40;93.70;;;;;;10317793;28;20038;-64
2023/04/11 14:23:20;;;;;;;4.60;0.63;;;14.50;93.60;;;;;;10315226;28;20122;-62
2023/04/11 14:28:21;;;;;;;2.78;0.65;;;14.50;93.50;;;;;;10309583;28;20377;-66
2023/04/11 14:33:22;;;;;;;3.90;0.90;;;14.60;92.80;;;;;;10311956;28;20022;-64
2023/04/11 14:38:22;;;;;;;3.30;0.73;;;14.70;92.40;;;;;;10302950;28;20030;-65
2023/04/11 14:43:23;;;;;;;2.53;0.90;;;14.70;92.20;;;;;;10313409;28;20065;-64
2023/04/11 14:48:27;;;;;;;4.78;0.88;;;14.80;92.00;;;;;;10314880;28;20070;-64
2023/04/11 14:53:28;;;;;;;2.13;0.90;;;14.90;92.00;;;;;;10311950;28;20026;-64
2023/04/11 14:58:29;;;;;;;3.33;0.95;;;15.00;92.10;;;;;;10315403;28;20030;-64
2023/04/11 15:03:31;;;;;;;3.58;1.15;;;15.00;92.10;;;;;;10313926;28;20033;-64
2023/04/11 15:08:32;;;;;;;3.75;0.90;;;15.20;92.00;;;;;;10307546;28;20030;-65
2023/04/11 15:13:33;;;;;;;1.60;0.60;;;15.30;91.80;;;;;;10314425;28;20339;-65
2023/04/11 15:18:34;;;;;;;2.95;0.60;;;15.40;91.80;;;;;;10315288;28;20134;-64
2023/04/11 15:23:34;;;;;;;6.65;1.88;;;15.50;91.40;;;;;;10311396;28;20532;-65
2023/04/11 15:28:37;;;;;;;4.00;0.93;;;15.60;90.80;;;;;;10310078;28;20057;-66
2023/04/11 15:33:37;;;;;;;5.30;0.85;;;15.60;90.10;;;;;;10323092;28;20038;-66
2023/04/11 15:38:38;;;;;;;3.67;1.10;;;15.70;89.20;;;;;;10316671;28;20050;-67
2023/04/11 15:43:39;;;;;;;2.38;0.65;;;15.70;84.90;;;;;;10322992;28;20057;-67
2023/04/11 15:48:39;;;;;;;2.95;0.60;;;15.50;82.20;;;;;;10316447;28;20050;-66
2023/04/11 15:53:40;;;;;;;4.72;0.85;;;15.20;80.40;;;;;;10314618;28;20102;-66
2023/04/11 15:58:41;;;;;;;3.65;0.90;;;15.00;79.50;;;;;;10319053;28;20039;-65
2023/04/11 16:03:42;;;;;;;5.57;1.40;;;14.70;79.20;;;;;;10317290;28;20031;-64
2023/04/11 16:08:44;;;;;;;4.30;1.00;;;14.40;79.10;;;;;;10317077;28;20049;-65
2023/04/11 16:13:44;;;;;;;4.78;1.33;;;14.30;78.80;;;;;;10322723;28;20027;-66
2023/04/11 16:18:45;;;;;;;1.77;0.80;;;14.30;78.30;;;;;;10324291;28;20454;-66
2023/04/11 16:23:46;;;;;;;6.40;2.00;;;14.30;78.20;;;;;;10321755;28;20034;-65
2023/04/11 16:28:47;;;;;;;4.03;0.90;;;14.20;77.60;;;;;;10315772;28;20027;-65
2023/04/11 16:33:48;;;;;;;4.45;0.73;;;14.10;76.40;;;;;;10317567;28;20038;-66
2023/04/11 16:38:49;;;;;;;3.75;0.88;;;14.00;76.70;;;;;;10318589;28;20027;-66
2023/04/11 16:43:49;;;;;;;5.43;0.90;;;13.80;76.60;;;;;;10318902;28;20034;-66
2023/04/11 16:48:50;;;;;;;7.65;1.50;;;13.50;76.20;;;;;;10322284;28;20040;-66
2023/04/11 16:53:52;;;;;;;6.38;1.20;;;13.40;76.50;;;;;;10316653;28;20049;-67
2023/04/11 16:58:52;;;;;;;5.90;1.50;;;13.40;76.70;;;;;;10314987;28;20125;-65
2023/04/11 17:03:53;;;;;;;7.90;1.17;;;13.30;76.50;;;;;;10318696;28;20116;-66
2023/04/11 17:08:56;;;;;;;2.92;0.82;;;13.20;76.40;;;;;;10314438;28;20025;-66
2023/04/11 17:13:58;;;;;;;5.88;1.40;;;13.10;76.50;;;;;;10322076;28;20054;-66
2023/04/11 17:18:59;;;;;;;3.78;0.98;;;13.10;76.70;;;;;;10318914;28;20425;-65
2023/04/11 17:23:59;;;;;;;6.43;1.30;;;13.00;77.00;;;;;;10318152;28;20038;-66
2023/04/11 17:29:00;;;;;;;9.35;1.38;;;12.90;77.30;;;;;;10318430;28;20022;-66
2023/04/11 17:34:01;;;;;;;4.35;1.20;;;12.80;77.60;;;;;;10319117;28;20030;-66
2023/04/11 17:39:03;;;;;;;2.63;0.93;;;12.70;77.80;;;;;;10315364;28;20075;-66
2023/04/11 17:44:03;;;;;;;10.25;2.15;;;12.80;78.70;;;;;;10311585;28;20502;-64
2023/04/11 17:49:04;;;;;;;5.95;1.90;;;12.60;79.30;;;;;;10309134;28;20026;-64
2023/04/11 17:54:05;;;;;;;5.95;1.75;;;12.80;79.50;;;;;;10310029;28;20038;-64
2023/04/11 17:59:05;;;;;;;4.95;1.10;;;13.00;79.70;;;;;;10307186;28;20026;-65
2023/04/11 18:04:08;;;;;;;4.53;1.30;;;13.10;79.90;;;;;;10315001;28;20034;-63
2023/04/11 18:09:08;;;;;;;4.20;1.10;;;13.20;80.20;;;;;;10316452;28;20010;-64
2023/04/11 18:14:09;;;;;;;4.38;1.20;;;13.30;80.60;;;;;;10320930;28;20410;-64
2023/04/11 18:19:10;;;;;;;4.57;1.27;;;13.40;81.00;;;;;;10313324;28;20072;-63
2023/04/11 18:24:10;;;;;;;5.22;1.52;;;13.40;81.50;;;;;;10316036;28;20026;-65
2023/04/11 18:29:11;;;;;;;4.35;1.42;;;13.40;81.90;;;;;;10314725;28;20022;-63
2023/04/11 18:34:11;;;;;;;7.93;2.80;;;13.40;82.30;;;;;;10311511;28;20350;-64
2023/04/11 18:39:12;;;;;;;6.22;1.50;;;13.40;82.70;;;;;;10309101;28;20384;-65
2023/04/11 18:44:13;;;;;;;4.75;1.40;;;13.40;83.10;;;;;;10312872;28;20033;-64
2023/04/11 18:49:13;;;;;;;3.65;1.63;;;13.40;83.50;;;;;;10311817;28;20050;-64
2023/04/11 18:54:14;;;;;;;5.35;1.33;;;13.40;83.90;;;;;;10316435;28;20106;-65
2023/04/11 18:59:16;;;;;;;8.82;1.40;;;13.40;84.20;;;;;;10311637;28;20034;-64
2023/04/11 19:04:17;;;;;;;5.78;1.65;;;13.40;84.60;;;;;;10314237;28;20022;-64
2023/04/11 19:09:19;;;;;;;4.30;1.45;;;13.40;84.90;;;;;;10320132;28;20037;-64
2023/04/11 19:14:19;;;;;;;4.32;1.30;;;13.40;85.20;;;;;;10319785;28;20026;-64
2023/04/11 19:19:20;;;;;;;3.35;1.23;;;13.40;85.50;;;;;;10317882;28;20402;-65
2023/04/11 19:24:20;;;;;;;7.97;2.08;;;13.30;85.80;;;;;;10315527;28;20022;-65
2023/04/11 19:29:21;;;;;;;4.45;1.30;;;13.30;86.10;;;;;;10311268;28;20394;-64
2023/04/11 19:34:22;;;;;;;4.00;1.02;;;13.30;86.30;;;;;;10313545;28;20454;-65
2023/04/11 19:39:22;;;;;;;4.63;1.25;;;13.30;86.50;;;;;;10315864;28;20026;-65
2023/04/11 19:44:23;;;;;;;3.50;1.38;;;13.20;86.80;;;;;;10313513;28;20113;-63
2023/04/11 19:49:23;;;;;;;2.28;1.10;;;13.20;86.90;;;;;;10316493;28;20026;-65
2023/04/11 19:54:24;;;;;;;2.88;1.33;;;13.20;87.20;;;;;;10311431;28;20034;-64
2023/04/11 19:59:25;;;;;;;6.00;1.10;;;13.20;87.30;;;;;;10311260;28;20072;-63
2023/04/11 20:04:26;;;;;;;3.35;1.10;;;13.10;87.50;;;;;;10309278;28;20029;-65
2023/04/11 20:09:27;;;;;;;3.15;1.35;;;13.10;87.60;;;;;;10312876;28;20161;-65
2023/04/11 20:14:28;;;;;;;2.88;1.30;;;13.10;87.80;;;;;;10315115;28;20100;-65
2023/04/11 20:19:31;;;;;;;4.82;1.42;;;13.10;87.90;;;;;;10320155;28;20106;-63
2023/04/11 20:24:32;;;;;;;4.28;1.00;;;13.00;88.00;;;;;;10322382;28;20558;-64
2023/04/11 20:29:32;;;;;;;5.90;1.40;;;13.00;88.00;;;;;;10324670;28;20030;-64
2023/04/11 20:34:33;;;;;;;2.97;1.23;;;13.00;88.10;;;;;;10321235;28;20038;-64
2023/04/11 20:39:34;;;;;;;6.38;1.77;;;12.90;88.00;;;;;;10322802;28;20037;-64
2023/04/11 20:44:35;;;;;;;2.72;0.98;;;12.90;88.10;;;;;;10313906;28;20037;-65
2023/04/11 20:49:35;;;;;;;4.85;1.10;;;12.90;88.00;;;;;;10317387;28;20030;-65
2023/04/11 20:54:36;;;;;;;4.05;0.90;;;12.90;88.00;;;;;;10318004;28;20121;-64
2023/04/11 20:59:37;;;;;;;4.47;1.00;;;12.80;88.00;;;;;;10319437;28;20084;-65
2023/04/11 21:04:38;;;;;;;3.55;1.00;;;12.80;87.90;;;;;;10313719;28;20030;-65
2023/04/11 21:09:39;;;;;;;3.85;1.10;;;12.80;87.90;;;;;;10317376;28;20763;-64
2023/04/11 21:14:40;;;;;;;2.03;0.88;;;12.80;88.00;;;;;;10322230;28;20552;-65
2023/04/11 21:19:40;;;;;;;4.22;1.00;;;12.70;87.90;;;;;;10318319;28;20534;-65
2023/04/11 21:24:44;;;;;;;4.30;0.98;;;12.70;87.90;;;;;;10315849;28;20398;-64
2023/04/11 21:29:44;;;;;;;4.55;1.50;;;12.70;87.90;;;;;;10311561;28;20023;-64
2023/04/11 21:34:45;;;;;;;4.32;1.52;;;12.70;87.90;;;;;;10318653;28;20121;-64
2023/04/11 21:39:47;;;;;;;4.65;1.50;;;12.60;87.90;;;;;;10314665;28;20030;-64
2023/04/11 21:44:48;;;;;;;3.33;1.15;;;12.60;87.90;;;;;;10324531;28;20030;-65
2023/04/11 21:49:48;;;;;;;4.32;1.13;;;12.60;87.90;;;;;;10311563;28;20342;-63
2023/04/11 21:54:49;;;;;;;3.33;1.38;;;12.60;87.90;;;;;;10308023;28;20054;-64
2023/04/11 21:59:50;;;;;;;2.53;1.15;;;12.50;88.50;;;;;;10316444;28;20056;-64
2023/04/11 22:04:57;;;;;;;3.28;1.27;;;12.50;88.00;;;;;;10328463;28;20019;-65
2023/04/11 22:09:58;;;;;;;3.25;1.30;;;12.50;88.00;;;;;;10317415;28;20026;-64
2023/04/11 22:14:59;;;;;;;3.38;1.45;;;12.40;87.90;;;;;;10315521;28;20030;-63
2023/04/11 22:19:59;;;;;;;4.35;1.27;;;12.40;87.90;;;;;;10317150;28;20026;-64
2023/04/11 22:25:00;;;;;;;4.88;1.73;;;12.40;88.00;;;;;;10315998;28;20030;-65
2023/04/11 22:30:01;;;;;;;3.10;1.63;;;12.40;88.10;;;;;;10315163;28;20029;-64
2023/04/11 22:35:03;;;;;;;5.80;2.00;;;12.40;88.10;;;;;;10319509;28;20033;-63
2023/04/11 22:40:05;;;;;;;4.43;1.38;;;12.30;88.10;;;;;;10316539;28;20073;-64
2023/04/11 22:45:06;;;;;;;5.20;1.17;;;12.30;88.20;;;;;;10318961;28;20015;-64
2023/04/11 22:50:08;;;;;;;5.57;1.67;;;12.30;88.20;;;;;;10318835;28;20018;-65
2023/04/11 22:55:09;;;;;;;4.43;1.63;;;12.30;88.30;;;;;;10317782;28;20018;-64
2023/04/11 23:00:12;;;;;;;3.95;1.65;;;12.30;88.40;;;;;;10317798;28;20057;-63
2023/04/11 23:05:15;;;;;;;4.53;1.60;;;12.30;88.50;;;;;;10315647;28;20034;-63
2023/04/11 23:10:16;;;;;;;3.45;1.20;;;12.30;88.60;;;;;;10315331;28;20153;-65
2023/04/11 23:15:16;;;;;;;4.03;1.25;;;12.30;88.70;;;;;;10314506;28;20103;-64
2023/04/11 23:20:17;;;;;;;3.17;1.52;;;12.20;88.70;;;;;;10315737;28;20036;-64
2023/04/11 23:25:18;;;;;;;3.92;1.48;;;12.20;88.80;;;;;;10312642;28;20157;-65
2023/04/11 23:30:18;;;;;;;6.53;1.50;;;12.40;89.00;;;;;;10313466;28;20018;-64
2023/04/11 23:35:19;;;;;;;5.28;1.40;;;11.90;89.50;;;;;;10316773;28;20066;-63
2023/04/11 23:40:20;;;;;;;4.95;1.70;;;12.20;89.20;;;;;;10315541;28;20903;-64
2023/04/11 23:45:21;;;;;;;2.40;1.27;;;12.20;89.30;;;;;;10316127;28;20019;-64
2023/04/11 23:50:22;;;;;;;3.70;1.45;;;12.20;89.40;;;;;;10315280;28;20763;-64
2023/04/11 23:55:22;;;;;;;2.22;1.23;;;12.20;89.50;;;;;;10325498;28;20030;-64
